Time,TemperatureF,DewpointF,PressureIn,WindDirection,WindDirectionDegrees,WindSpeedMPH,WindSpeedGustMPH,Humidity,HourlyPrecipIn,Conditions,Clouds,dailyrainin,SoftwareType,DateUTC
2013-09-12 00:12:00,65.6,-99.9,-29.53,SW,222,0.0,6.0,-999,0.00,,,-99.99,,2013-09-12 07:12:00,
2013-09-12 00:17:00,65.4,-99.9,-29.53,South,191,0.0,6.8,-999,0.00,,,-99.99,,2013-09-12 07:17:00,
2013-09-12 00:22:00,65.4,-99.9,-29.53,WSW,240,3.2,7.4,-999,0.00,,,-99.99,,2013-09-12 07:22:00,
2013-09-12 00:27:00,65.4,-99.9,-29.53,SW,215,5.4,7.8,-999,0.00,,,-99.99,,2013-09-12 07:27:00,
2013-09-12 00:32:00,65.2,-99.9,-29.53,SSW,202,2.8,7.4,-999,0.00,,,-99.99,,2013-09-12 07:32:00,
2013-09-12 00:38:00,65.4,-99.9,-29.53,SSW,202,0.0,0.0,-999,0.00,,,-99.99,,2013-09-12 07:38:00,
2013-09-12 00:43:00,65.3,-99.9,-29.53,SSW,202,0.0,0.0,-999,0.00,,,-99.99,,2013-09-12 07:43:00,
2013-09-12 00:48:00,65.3,-99.9,-29.53,SSW,202,0.0,0.0,-999,0.00,,,-99.99,,2013-09-12 07:48:00,
2013-09-12 00:53:00,65.2,-99.9,-29.53,SSW,202,0.0,0.0,-999,0.00,,,-99.99,,2013-09-12 07:53:00,
2013-09-12 00:58:00,65.3,-99.9,-29.53,SSW,202,0.0,0.0,-999,0.00,,,-99.99,,2013-09-12 07:58:00,
2013-09-12 01:14:00,65.2,-99.9,-29.53,SSW,202,0.0,0.0,-999,0.00,,,-99.99,,2013-09-12 08:14:00,
2013-09-12 01:19:00,65.3,-99.9,-29.53,SSW,202,0.0,0.0,-999,0.00,,,-99.99,,2013-09-12 08:19:00,
2013-09-12 01:24:00,65.3,-99.9,-29.53,SSW,202,0.0,0.0,-999,0.00,,,-99.99,,2013-09-12 08:24:00,
2013-09-12 01:29:00,65.3,-99.9,-29.53,SSW,202,0.0,0.0,-999,0.00,,,-99.99,,2013-09-12 08:29:00,
2013-09-12 01:34:00,65.5,-99.9,-29.53,SSW,202,0.0,0.0,-999,0.00,,,-99.99,,2013-09-12 08:34:00,
2013-09-12 01:39:00,65.6,-99.9,-29.53,SSW,202,0.0,0.0,-999,0.00,,,-99.99,,2013-09-12 08:39:00,
2013-09-12 01:44:00,65.6,-99.9,-29.53,SSW,202,0.0,0.0,-999,0.00,,,-99.99,,2013-09-12 08:44:00,
2013-09-12 01:50:00,65.7,-99.9,-29.53,SSW,202,0.0,0.0,-999,0.00,,,-99.99,,2013-09-12 08:50:00,
2013-09-12 01:55:00,65.8,-99.9,-29.53,SSW,202,0.0,0.0,-999,0.00,,,-99.99,,2013-09-12 08:55:00,
2013-09-12 02:09:00,59.3,-99.9,-29.53,SSW,209,0.0,0.0,-999,0.00,,,-99.99,,2013-09-12 09:09:00,
2013-09-12 02:10:00,65.7,-99.9,-29.53,SSW,202,0.0,0.0,-999,0.00,,,-99.99,,2013-09-12 09:10:00,
2013-09-12 02:15:00,65.7,-99.9,-29.53,SSW,209,0.0,5.7,-999,0.00,,,-99.99,,2013-09-12 09:15:00,
2013-09-12 02:21:00,65.8,-99.9,-29.53,WSW,243,0.0,6.1,-999,0.00,,,-99.99,,2013-09-12 09:21:00,
2013-09-12 02:26:00,65.8,-99.9,-29.53,WSW,243,0.0,0.0,-999,0.00,,,-99.99,,2013-09-12 09:26:00,
2013-09-12 02:31:00,65.7,-99.9,-29.53,WSW,243,0.0,0.0,-999,0.00,,,-99.99,,2013-09-12 09:31:00,
2013-09-12 02:36:00,65.7,-99.9,-29.53,WSW,243,0.0,0.0,-999,0.00,,,-99.99,,2013-09-12 09:36:00,
2013-09-12 02:41:00,65.9,-99.9,-29.53,WSW,243,0.0,0.0,-999,0.00,,,-99.99,,2013-09-12 09:41:00,
2013-09-12 02:46:00,65.8,-99.9,-29.53,WSW,243,0.0,0.0,-999,0.00,,,-99.99,,2013-09-12 09:46:00,
2013-09-12 02:51:00,65.8,-99.9,-29.53,WSW,243,0.0,0.0,-999,0.00,,,-99.99,,2013-09-12 09:51:00,
2013-09-12 02:57:00,65.8,-99.9,-29.53,WSW,243,0.0,0.0,-999,0.00,,,-99.99,,2013-09-12 09:57:00,
2013-09-12 03:12:00,65.8,-99.9,-29.53,WSW,243,0.0,0.0,-999,0.00,,,-99.99,,2013-09-12 10:12:00,
2013-09-12 03:17:00,65.7,-99.9,-29.53,WSW,243,0.0,0.0,-999,0.00,,,-99.99,,2013-09-12 10:17:00,
2013-09-12 03:22:00,65.7,-99.9,-29.53,WSW,243,0.0,0.0,-999,0.00,,,-99.99,,2013-09-12 10:22:00,
2013-09-12 03:28:00,65.8,-99.9,-29.53,WSW,243,0.0,0.0,-999,0.00,,,-99.99,,2013-09-12 10:28:00,
2013-09-12 03:33:00,65.6,-99.9,-29.53,WSW,243,0.0,0.0,-999,0.00,,,-99.99,,2013-09-12 10:33:00,
2013-09-12 03:38:00,65.5,-99.9,-29.53,WSW,243,0.0,0.0,-999,0.00,,,-99.99,,2013-09-12 10:38:00,
2013-09-12 03:43:00,65.6,-99.9,-29.53,WSW,243,0.0,0.0,-999,0.00,,,-99.99,,2013-09-12 10:43:00,
2013-09-12 03:48:00,65.6,-99.9,-29.53,WSW,243,0.0,0.0,-999,0.00,,,-99.99,,2013-09-12 10:48:00,
2013-09-12 03:53:00,65.5,-99.9,-29.53,WSW,243,0.0,0.0,-999,0.00,,,-99.99,,2013-09-12 10:53:00,
2013-09-12 03:58:00,65.6,-99.9,-29.53,WSW,243,0.0,0.0,-999,0.00,,,-99.99,,2013-09-12 10:58:00,
2013-09-12 04:09:00,65.6,-99.9,-29.53,WSW,243,0.0,0.0,-999,0.00,,,-99.99,,2013-09-12 11:09:00,
2013-09-12 04:14:00,65.7,-99.9,-29.53,WSW,243,0.0,0.0,-999,0.00,,,-99.99,,2013-09-12 11:14:00,
2013-09-12 04:19:00,65.8,-99.9,-29.53,WSW,243,0.0,0.0,-999,0.00,,,-99.99,,2013-09-12 11:19:00,
2013-09-12 04:24:00,65.8,-99.9,-29.53,WSW,243,0.0,0.0,-999,0.00,,,-99.99,,2013-09-12 11:24:00,
2013-09-12 04:29:00,65.7,-99.9,-29.53,WSW,243,0.0,0.0,-999,0.00,,,-99.99,,2013-09-12 11:29:00,
2013-09-12 04:34:00,65.8,-99.9,-29.53,WSW,243,0.0,0.0,-999,0.00,,,-99.99,,2013-09-12 11:34:00,
2013-09-12 04:40:00,65.8,-99.9,-29.53,WSW,243,0.0,0.0,-999,0.00,,,-99.99,,2013-09-12 11:40:00,
2013-09-12 04:45:00,66.0,-99.9,-29.53,WSW,243,0.0,0.0,-999,0.00,,,-99.99,,2013-09-12 11:45:00,
2013-09-12 04:50:00,66.0,-99.9,-29.53,WSW,243,0.0,0.0,-999,0.00,,,-99.99,,2013-09-12 11:50:00,
2013-09-12 04:55:00,65.9,-99.9,-29.53,WSW,243,0.0,0.0,-999,0.00,,,-99.99,,2013-09-12 11:55:00,
2013-09-12 05:11:00,65.6,-99.9,-29.53,WSW,243,0.0,0.0,-999,0.00,,,-99.99,,2013-09-12 12:11:00,
2013-09-12 05:16:00,65.7,-99.9,-29.53,WSW,243,0.0,0.0,-999,0.00,,,-99.99,,2013-09-12 12:16:00,
2013-09-12 05:21:00,65.6,-99.9,-29.53,WSW,243,0.0,0.0,-999,0.00,,,-99.99,,2013-09-12 12:21:00,
2013-09-12 05:26:00,65.6,-99.9,-29.53,WSW,243,0.0,0.0,-999,0.00,,,-99.99,,2013-09-12 12:26:00,
2013-09-12 05:31:00,65.7,-99.9,-29.53,WSW,243,0.0,0.0,-999,0.00,,,-99.99,,2013-09-12 12:31:00,
2013-09-12 05:36:00,65.7,-99.9,-29.53,WSW,243,0.0,0.0,-999,0.00,,,-99.99,,2013-09-12 12:36:00,
2013-09-12 05:41:00,65.7,-99.9,-29.53,WSW,243,0.0,0.0,-999,0.00,,,-99.99,,2013-09-12 12:41:00,
2013-09-12 05:47:00,65.8,-99.9,-29.53,WSW,243,0.0,0.0,-999,0.00,,,-99.99,,2013-09-12 12:47:00,
2013-09-12 05:52:00,65.8,-99.9,-29.53,WSW,243,0.0,0.0,-999,0.00,,,-99.99,,2013-09-12 12:52:00,
2013-09-12 05:57:00,65.6,-99.9,-29.53,WSW,243,0.0,0.0,-999,0.00,,,-99.99,,2013-09-12 12:57:00,
2013-09-12 06:12:00,65.4,-99.9,-29.53,WSW,243,0.0,0.0,-999,0.00,,,-99.99,,2013-09-12 13:12:00,
2013-09-12 06:18:00,65.4,-99.9,-29.53,WSW,243,0.0,0.0,-999,0.00,,,-99.99,,2013-09-12 13:18:00,
2013-09-12 06:23:00,65.4,-99.9,-29.53,WSW,243,0.0,0.0,-999,0.00,,,-99.99,,2013-09-12 13:23:00,
2013-09-12 06:28:00,65.4,-99.9,-29.53,WSW,243,0.0,0.0,-999,0.00,,,-99.99,,2013-09-12 13:28:00,
2013-09-12 06:33:00,65.5,-99.9,-29.53,WSW,243,0.0,0.0,-999,0.00,,,-99.99,,2013-09-12 13:33:00,
2013-09-12 06:38:00,65.4,-99.9,-29.53,WSW,243,0.0,0.0,-999,0.00,,,-99.99,,2013-09-12 13:38:00,
2013-09-12 06:43:00,65.4,-99.9,-29.53,WSW,243,0.0,0.0,-999,0.00,,,-99.99,,2013-09-12 13:43:00,
2013-09-12 06:48:00,65.5,-99.9,-29.53,WSW,243,0.0,0.0,-999,0.00,,,-99.99,,2013-09-12 13:48:00,
2013-09-12 06:54:00,65.2,-99.9,-29.53,WSW,243,0.0,0.0,-999,0.00,,,-99.99,,2013-09-12 13:54:00,
2013-09-12 06:59:00,65.2,-99.9,-29.53,WSW,243,0.0,0.0,-999,0.00,,,-99.99,,2013-09-12 13:59:00,
2013-09-12 07:09:00,65.1,-99.9,-29.53,WSW,243,0.0,0.0,-999,0.00,,,-99.99,,2013-09-12 14:09:00,
2013-09-12 07:14:00,65.1,-99.9,-29.53,WSW,243,0.0,0.0,-999,0.00,,,-99.99,,2013-09-12 14:14:00,
2013-09-12 07:19:00,65.1,-99.9,-29.53,WSW,250,3.1,5.1,-999,0.00,,,-99.99,,2013-09-12 14:19:00,
2013-09-12 07:25:00,65.1,-99.9,-29.53,SSW,196,0.0,4.9,-999,0.00,,,-99.99,,2013-09-12 14:25:00,
2013-09-12 07:30:00,65.3,-99.9,-29.53,SSW,196,0.0,0.0,-999,0.00,,,-99.99,,2013-09-12 14:30:00,
2013-09-12 07:35:00,65.3,-99.9,-29.53,SSW,196,0.0,0.0,-999,0.00,,,-99.99,,2013-09-12 14:35:00,
2013-09-12 07:40:00,65.3,-99.9,-29.53,SSW,196,0.0,0.0,-999,0.00,,,-99.99,,2013-09-12 14:40:00,
2013-09-12 07:45:00,65.5,-99.9,-29.53,SSW,196,0.0,0.0,-999,0.00,,,-99.99,,2013-09-12 14:45:00,
2013-09-12 07:50:00,65.6,-99.9,-29.53,SSW,196,0.0,0.0,-999,0.00,,,-99.99,,2013-09-12 14:50:00,
2013-09-12 07:55:00,65.7,-99.9,-29.53,SSW,196,0.0,0.0,-999,0.00,,,-99.99,,2013-09-12 14:55:00,
2013-09-12 08:11:00,65.9,-99.9,-29.53,SSW,196,0.0,0.0,-999,0.00,,,-99.99,,2013-09-12 15:11:00,
2013-09-12 08:16:00,66.1,-99.9,-29.53,SSW,196,0.0,0.0,-999,0.00,,,-99.99,,2013-09-12 15:16:00,
2013-09-12 08:21:00,66.4,-99.9,-29.53,SSW,196,0.0,0.0,-999,0.00,,,-99.99,,2013-09-12 15:21:00,
2013-09-12 08:26:00,66.8,-99.9,-29.53,SSW,196,0.0,0.0,-999,0.00,,,-99.99,,2013-09-12 15:26:00,
2013-09-12 08:32:00,66.7,-99.9,-29.53,SSW,196,0.0,0.0,-999,0.00,,,-99.99,,2013-09-12 15:32:00,
2013-09-12 08:37:00,66.9,-99.9,-29.53,SSW,196,0.0,0.0,-999,0.00,,,-99.99,,2013-09-12 15:37:00,
2013-09-12 08:42:00,66.9,-99.9,-29.53,SSW,196,0.0,0.0,-999,0.00,,,-99.99,,2013-09-12 15:42:00,
2013-09-12 08:47:00,66.7,-99.9,-29.53,SSW,196,0.0,0.0,-999,0.00,,,-99.99,,2013-09-12 15:47:00,
2013-09-12 08:52:00,66.9,-99.9,-29.53,SSW,196,0.0,0.0,-999,0.00,,,-99.99,,2013-09-12 15:52:00,
2013-09-12 08:57:00,66.9,-99.9,-29.53,SSW,196,0.0,0.0,-999,0.00,,,-99.99,,2013-09-12 15:57:00,
2013-09-12 09:13:00,67.0,-99.9,-29.53,SSW,196,0.0,0.0,-999,0.00,,,-99.99,,2013-09-12 16:13:00,
2013-09-12 09:18:00,67.2,-99.9,-29.53,SSW,196,0.0,0.0,-999,0.00,,,-99.99,,2013-09-12 16:18:00,
2013-09-12 09:23:00,67.2,-99.9,-29.53,SSW,196,0.0,0.0,-999,0.00,,,-99.99,,2013-09-12 16:23:00,
2013-09-12 09:28:00,67.6,-99.9,-29.53,SSW,196,0.0,0.0,-999,0.00,,,-99.99,,2013-09-12 16:28:00,
2013-09-12 09:33:00,67.4,-99.9,-29.53,SSW,196,0.0,0.0,-999,0.00,,,-99.99,,2013-09-12 16:33:00,
2013-09-12 09:39:00,67.8,-99.9,-29.53,SSW,196,0.0,0.0,-999,0.00,,,-99.99,,2013-09-12 16:39:00,
2013-09-12 09:44:00,68.1,-99.9,-29.53,SSW,196,0.0,0.0,-999,0.00,,,-99.99,,2013-09-12 16:44:00,
2013-09-12 09:49:00,68.0,-99.9,-29.53,SSW,196,0.0,0.0,-999,0.00,,,-99.99,,2013-09-12 16:49:00,
2013-09-12 09:54:00,67.9,-99.9,-29.53,SSW,196,0.0,0.0,-999,0.00,,,-99.99,,2013-09-12 16:54:00,
2013-09-12 09:59:00,68.3,-99.9,-29.53,SSW,196,0.0,0.0,-999,0.00,,,-99.99,,2013-09-12 16:59:00,
2013-09-12 10:09:00,63.9,-99.9,-29.53,SW,220,6.3,8.3,-999,0.00,,,-99.99,,2013-09-12 17:09:00,
2013-09-12 10:10:00,70.5,-99.9,-29.53,SSW,196,0.0,0.0,-999,0.00,,,-99.99,,2013-09-12 17:10:00,
2013-09-12 10:15:00,72.5,-99.9,-29.53,SSW,196,0.0,0.0,-999,0.00,,,-99.99,,2013-09-12 17:15:00,
2013-09-12 10:20:00,73.8,-99.9,-29.53,SSW,196,0.0,0.0,-999,0.00,,,-99.99,,2013-09-12 17:20:00,
2013-09-12 10:25:00,80.6,-99.9,-29.53,North,358,4.7,7.2,-999,0.00,,,-99.99,,2013-09-12 17:25:00,
2013-09-12 10:30:00,82.9,-99.9,-29.53,NNW,336,0.0,6.0,-999,0.00,,,-99.99,,2013-09-12 17:30:00,
2013-09-12 10:35:00,80.0,-99.9,-29.53,NNW,336,0.0,0.0,-999,0.00,,,-99.99,,2013-09-12 17:35:00,
2013-09-12 10:40:00,78.5,-99.9,-29.53,NNW,336,0.0,0.0,-999,0.00,,,-99.99,,2013-09-12 17:40:00,
2013-09-12 10:46:00,76.4,-99.9,-29.53,NNW,336,0.0,0.0,-999,0.00,,,-99.99,,2013-09-12 17:46:00,
2013-09-12 10:51:00,74.3,-99.9,-29.53,NNW,336,0.0,0.0,-999,0.00,,,-99.99,,2013-09-12 17:51:00,
2013-09-12 10:56:00,73.6,-99.9,-29.53,NNW,336,0.0,0.0,-999,0.00,,,-99.99,,2013-09-12 17:56:00,
2013-09-12 11:11:00,71.9,-99.9,-29.53,North,1,0.0,3.1,-999,0.00,,,-99.99,,2013-09-12 18:11:00,
2013-09-12 11:17:00,71.8,-99.9,-29.53,NNE,29,0.0,4.4,-999,0.00,,,-99.99,,2013-09-12 18:17:00,
2013-09-12 11:22:00,72.4,-99.9,-29.53,NNE,33,0.0,5.8,-999,0.00,,,-99.99,,2013-09-12 18:22:00,
2013-09-12 11:27:00,73.8,-99.9,-29.53,North,358,0.0,6.1,-999,0.00,,,-99.99,,2013-09-12 18:27:00,
2013-09-12 11:32:00,74.7,-99.9,-29.53,NNE,23,0.0,7.5,-999,0.00,,,-99.99,,2013-09-12 18:32:00,
2013-09-12 11:37:00,74.3,-99.9,-29.53,ENE,70,4.5,4.5,-999,0.00,,,-99.99,,2013-09-12 18:37:00,
2013-09-12 11:42:00,73.4,-99.9,-29.53,North,358,0.0,5.5,-999,0.00,,,-99.99,,2013-09-12 18:42:00,
2013-09-12 11:48:00,72.6,-99.9,-29.53,ENE,63,0.0,6.7,-999,0.00,,,-99.99,,2013-09-12 18:48:00,
2013-09-12 11:53:00,72.1,-99.9,-29.53,East,88,0.0,5.8,-999,0.00,,,-99.99,,2013-09-12 18:53:00,
2013-09-12 11:58:00,72.0,-99.9,-29.53,NNE,14,0.0,6.7,-999,0.00,,,-99.99,,2013-09-12 18:58:00,
2013-09-12 12:13:00,73.8,-99.9,-29.53,North,11,0.0,6.1,-999,0.00,,,-99.99,,2013-09-12 19:13:00,
2013-09-12 12:18:00,72.8,-99.9,-29.53,North,11,0.0,0.0,-999,0.00,,,-99.99,,2013-09-12 19:18:00,
2013-09-12 12:24:00,72.2,-99.9,-29.53,North,11,0.0,0.0,-999,0.00,,,-99.99,,2013-09-12 19:24:00,
2013-09-12 12:29:00,71.8,-99.9,-29.53,North,11,0.0,0.0,-999,0.00,,,-99.99,,2013-09-12 19:29:00,
2013-09-12 12:34:00,71.5,-99.9,-29.53,ENE,63,0.0,9.2,-999,0.00,,,-99.99,,2013-09-12 19:34:00,
2013-09-12 12:39:00,71.4,-99.9,-29.53,East,99,0.0,6.7,-999,0.00,,,-99.99,,2013-09-12 19:39:00,
2013-09-12 12:44:00,71.5,-99.9,-29.53,NNW,329,0.0,5.1,-999,0.00,,,-99.99,,2013-09-12 19:44:00,
2013-09-12 12:49:00,71.4,-99.9,-29.53,NNE,32,0.0,6.7,-999,0.00,,,-99.99,,2013-09-12 19:49:00,
2013-09-12 12:55:00,71.4,-99.9,-29.53,NNW,333,0.0,7.0,-999,0.00,,,-99.99,,2013-09-12 19:55:00,
2013-09-12 13:09:00,64.3,-99.9,-29.53,NNE,22,7.0,7.0,-999,0.00,,,-99.99,,2013-09-12 20:09:00,
2013-09-12 13:10:00,71.5,-99.9,-29.53,NNW,337,5.4,9.8,-999,0.00,,,-99.99,,2013-09-12 20:10:00,
2013-09-12 13:15:00,71.6,-99.9,-29.53,North,350,5.2,9.9,-999,0.00,,,-99.99,,2013-09-12 20:15:00,
2013-09-12 13:20:00,71.6,-99.9,-29.53,NNE,16,6.5,8.0,-999,0.00,,,-99.99,,2013-09-12 20:20:00,
2013-09-12 13:26:00,71.8,-99.9,-29.53,North,358,4.8,8.4,-999,0.00,,,-99.99,,2013-09-12 20:26:00,
2013-09-12 13:31:00,71.9,-99.9,-29.53,North,358,4.3,10.1,-999,0.00,,,-99.99,,2013-09-12 20:31:00,
2013-09-12 13:36:00,71.8,-99.9,-29.53,NNE,15,7.2,9.3,-999,0.00,,,-99.99,,2013-09-12 20:36:00,
2013-09-12 13:41:00,71.6,-99.9,-29.53,NNE,32,0.0,12.9,-999,0.00,,,-99.99,,2013-09-12 20:41:00,
2013-09-12 13:46:00,71.5,-99.9,-29.53,North,5,5.8,10.3,-999,0.00,,,-99.99,,2013-09-12 20:46:00,
2013-09-12 13:51:00,71.5,-99.9,-29.53,NNW,345,7.9,11.5,-999,0.00,,,-99.99,,2013-09-12 20:51:00,
2013-09-12 13:56:00,71.5,-99.9,-29.53,NW,307,0.0,11.8,-999,0.00,,,-99.99,,2013-09-12 20:56:00,
2013-09-12 14:12:00,71.1,-99.9,-29.53,North,354,7.5,13.0,-999,0.00,,,-99.99,,2013-09-12 21:12:00,
2013-09-12 14:17:00,71.0,-99.9,-29.53,NW,320,7.5,10.6,-999,0.00,,,-99.99,,2013-09-12 21:17:00,
2013-09-12 14:22:00,71.0,-99.9,-29.53,NNE,15,0.0,10.8,-999,0.00,,,-99.99,,2013-09-12 21:22:00,
2013-09-12 14:27:00,71.1,-99.9,-29.53,NNE,16,0.0,9.9,-999,0.00,,,-99.99,,2013-09-12 21:27:00,
2013-09-12 14:33:00,71.1,-99.9,-29.53,NNW,331,9.9,12.6,-999,0.00,,,-99.99,,2013-09-12 21:33:00,
2013-09-12 14:38:00,71.2,-99.9,-29.53,North,358,0.0,10.6,-999,0.00,,,-99.99,,2013-09-12 21:38:00,
2013-09-12 14:43:00,71.2,-99.9,-29.53,NNE,18,7.2,10.4,-999,0.00,,,-99.99,,2013-09-12 21:43:00,
2013-09-12 14:48:00,71.3,-99.9,-29.53,North,354,5.7,11.0,-999,0.00,,,-99.99,,2013-09-12 21:48:00,
2013-09-12 14:53:00,71.5,-99.9,-29.53,NW,317,0.0,10.9,-999,0.00,,,-99.99,,2013-09-12 21:53:00,
2013-09-12 14:58:00,71.5,-99.9,-29.53,North,1,7.5,11.1,-999,0.00,,,-99.99,,2013-09-12 21:58:00,
2013-09-12 15:14:00,71.6,-99.9,-29.53,NW,309,4.5,11.3,-999,0.00,,,-99.99,,2013-09-12 22:14:00,
2013-09-12 15:19:00,71.8,-99.9,-29.53,North,5,7.2,10.9,-999,0.00,,,-99.99,,2013-09-12 22:19:00,
2013-09-12 15:24:00,71.8,-99.9,-29.53,NW,305,6.1,8.4,-999,0.00,,,-99.99,,2013-09-12 22:24:00,
2013-09-12 15:29:00,71.9,-99.9,-29.53,NNE,21,0.0,6.8,-999,0.00,,,-99.99,,2013-09-12 22:29:00,
2013-09-12 15:34:00,72.0,-99.9,-29.53,WNW,303,5.3,8.7,-999,0.00,,,-99.99,,2013-09-12 22:34:00,
2013-09-12 15:40:00,72.1,-99.9,-29.53,North,2,2.9,8.1,-999,0.00,,,-99.99,,2013-09-12 22:40:00,
2013-09-12 15:45:00,72.2,-99.9,-29.53,NNE,26,0.0,8.8,-999,0.00,,,-99.99,,2013-09-12 22:45:00,
2013-09-12 15:50:00,72.2,-99.9,-29.53,NE,52,4.6,9.8,-999,0.00,,,-99.99,,2013-09-12 22:50:00,
2013-09-12 15:55:00,72.3,-99.9,-29.53,North,358,3.2,9.8,-999,0.00,,,-99.99,,2013-09-12 22:55:00,
2013-09-12 16:09:00,64.7,-99.9,-29.53,North,11,0.0,6.8,-999,0.00,,,-99.99,,2013-09-12 23:09:00,
2013-09-12 16:11:00,72.0,-99.9,-29.53,NNE,19,5.0,9.9,-999,0.00,,,-99.99,,2013-09-12 23:11:00,
2013-09-12 16:16:00,71.9,-99.9,-29.53,NNE,22,4.4,7.5,-999,0.00,,,-99.99,,2013-09-12 23:16:00,
2013-09-12 16:21:00,71.8,-99.9,-29.53,NE,54,0.0,8.4,-999,0.00,,,-99.99,,2013-09-12 23:21:00,
2013-09-12 16:26:00,71.8,-99.9,-29.53,North,352,0.0,8.0,-999,0.00,,,-99.99,,2013-09-12 23:26:00,
2013-09-12 16:31:00,71.8,-99.9,-29.53,East,80,3.2,5.3,-999,0.00,,,-99.99,,2013-09-12 23:31:00,
2013-09-12 16:36:00,71.6,-99.9,-29.53,NNE,29,0.0,5.2,-999,0.00,,,-99.99,,2013-09-12 23:36:00,
2013-09-12 16:41:00,71.5,-99.9,-29.53,ENE,61,0.0,5.0,-999,0.00,,,-99.99,,2013-09-12 23:41:00,
2013-09-12 16:47:00,71.5,-99.9,-29.53,ENE,60,0.0,6.3,-999,0.00,,,-99.99,,2013-09-12 23:47:00,
2013-09-12 16:52:00,71.5,-99.9,-29.53,North,4,0.0,8.0,-999,0.00,,,-99.99,,2013-09-12 23:52:00,
2013-09-12 16:57:00,71.5,-99.9,-29.53,NE,47,0.0,4.2,-999,0.00,,,-99.99,,2013-09-12 23:57:00,
2013-09-12 17:12:00,71.4,-99.9,-29.53,NE,56,0.0,7.0,-999,0.00,,,-99.99,,2013-09-13 00:12:00,
2013-09-12 17:18:00,71.2,-99.9,-29.53,ENE,66,0.0,6.0,-999,0.00,,,-99.99,,2013-09-13 00:18:00,
2013-09-12 17:23:00,71.2,-99.9,-29.53,NE,54,0.0,5.0,-999,0.00,,,-99.99,,2013-09-13 00:23:00,
2013-09-12 17:28:00,71.1,-99.9,-29.53,NE,54,0.0,0.0,-999,0.00,,,-99.99,,2013-09-13 00:28:00,
2013-09-12 17:33:00,71.1,-99.9,-29.53,NE,54,0.0,0.0,-999,0.00,,,-99.99,,2013-09-13 00:33:00,
2013-09-12 17:38:00,70.9,-99.9,-29.53,East,80,0.0,6.0,-999,0.00,,,-99.99,,2013-09-13 00:38:00,
2013-09-12 17:43:00,70.8,-99.9,-29.53,East,80,0.0,0.0,-999,0.00,,,-99.99,,2013-09-13 00:43:00,
2013-09-12 17:48:00,70.8,-99.9,-29.53,East,80,0.0,0.0,-999,0.00,,,-99.99,,2013-09-13 00:48:00,
2013-09-12 17:54:00,70.6,-99.9,-29.53,East,80,0.0,0.0,-999,0.00,,,-99.99,,2013-09-13 00:54:00,
2013-09-12 17:59:00,70.6,-99.9,-29.53,East,80,0.0,0.0,-999,0.00,,,-99.99,,2013-09-13 00:59:00,
2013-09-12 18:09:00,70.6,-99.9,-29.53,East,80,0.0,0.0,-999,0.00,,,-99.99,,2013-09-13 01:09:00,
2013-09-12 18:14:00,70.5,-99.9,-29.53,SW,230,7.1,8.2,-999,0.00,,,-99.99,,2013-09-13 01:14:00,
2013-09-12 18:19:00,70.5,-99.9,-29.53,WSW,243,6.4,8.6,-999,0.00,,,-99.99,,2013-09-13 01:19:00,
2013-09-12 18:25:00,70.4,-99.9,-29.53,WSW,239,0.0,7.4,-999,0.00,,,-99.99,,2013-09-13 01:25:00,
2013-09-12 18:30:00,70.3,-99.9,-29.53,WSW,239,0.0,0.0,-999,0.00,,,-99.99,,2013-09-13 01:30:00,
2013-09-12 18:35:00,70.1,-99.9,-29.53,South,189,0.0,4.8,-999,0.00,,,-99.99,,2013-09-13 01:35:00,
2013-09-12 18:40:00,70.0,-99.9,-29.53,South,189,0.0,0.0,-999,0.00,,,-99.99,,2013-09-13 01:40:00,
2013-09-12 18:45:00,69.9,-99.9,-29.53,SSW,201,0.0,5.0,-999,0.00,,,-99.99,,2013-09-13 01:45:00,
2013-09-12 18:50:00,69.7,-99.9,-29.53,SSW,208,3.4,7.3,-999,0.00,,,-99.99,,2013-09-13 01:50:00,
2013-09-12 18:55:00,69.4,-99.9,-29.53,SSE,164,0.0,7.0,-999,0.00,,,-99.99,,2013-09-13 01:55:00,
2013-09-12 19:11:00,68.7,-99.9,-29.53,WSW,241,5.9,7.4,-999,0.00,,,-99.99,,2013-09-13 02:11:00,
2013-09-12 19:16:00,68.5,-99.9,-29.53,SW,234,5.9,7.4,-999,0.00,,,-99.99,,2013-09-13 02:16:00,
2013-09-12 19:21:00,68.3,-99.9,-29.53,SW,229,5.0,8.0,-999,0.00,,,-99.99,,2013-09-13 02:21:00,
2013-09-12 19:26:00,68.1,-99.9,-29.53,WSW,247,7.5,8.6,-999,0.00,,,-99.99,,2013-09-13 02:26:00,
2013-09-12 19:32:00,67.9,-99.9,-29.53,SW,215,5.5,8.3,-999,0.00,,,-99.99,,2013-09-13 02:32:00,
2013-09-12 19:37:00,67.8,-99.9,-29.53,SW,226,0.0,6.8,-999,0.00,,,-99.99,,2013-09-13 02:37:00,
2013-09-12 19:42:00,67.8,-99.9,-29.53,SW,226,3.4,5.7,-999,0.00,,,-99.99,,2013-09-13 02:42:00,
2013-09-12 19:47:00,67.8,-99.9,-29.53,SW,232,4.3,5.2,-999,0.00,,,-99.99,,2013-09-13 02:47:00,
2013-09-12 19:52:00,67.9,-99.9,-29.53,SSW,196,0.0,4.5,-999,0.00,,,-99.99,,2013-09-13 02:52:00,
2013-09-12 19:57:00,67.8,-99.9,-29.53,SSW,196,0.0,0.0,-999,0.00,,,-99.99,,2013-09-13 02:57:00,
2013-09-12 20:13:00,67.6,-99.9,-29.53,SSW,196,0.0,0.0,-999,0.00,,,-99.99,,2013-09-13 03:13:00,
2013-09-12 20:18:00,67.7,-99.9,-29.53,SSW,196,0.0,0.0,-999,0.00,,,-99.99,,2013-09-13 03:18:00,
2013-09-12 20:23:00,67.7,-99.9,-29.53,SSW,196,0.0,0.0,-999,0.00,,,-99.99,,2013-09-13 03:23:00,
2013-09-12 20:28:00,67.4,-99.9,-29.53,SSW,196,0.0,0.0,-999,0.00,,,-99.99,,2013-09-13 03:28:00,
2013-09-12 20:33:00,67.3,-99.9,-29.53,SSW,196,0.0,0.0,-999,0.00,,,-99.99,,2013-09-13 03:33:00,
2013-09-12 20:39:00,67.3,-99.9,-29.53,SSW,196,0.0,0.0,-999,0.00,,,-99.99,,2013-09-13 03:39:00,
2013-09-12 20:44:00,67.3,-99.9,-29.53,SSW,196,0.0,0.0,-999,0.00,,,-99.99,,2013-09-13 03:44:00,
2013-09-12 20:49:00,67.1,-99.9,-29.53,SSW,196,0.0,0.0,-999,0.00,,,-99.99,,2013-09-13 03:49:00,
2013-09-12 20:54:00,67.1,-99.9,-29.53,SSW,196,0.0,0.0,-999,0.00,,,-99.99,,2013-09-13 03:54:00,
2013-09-12 20:59:00,67.0,-99.9,-29.53,SSW,196,0.0,0.0,-999,0.00,,,-99.99,,2013-09-13 03:59:00,
2013-09-12 21:09:00,66.8,-99.9,-29.53,SE,126,0.0,4.9,-999,0.00,,,-99.99,,2013-09-13 04:09:00,
2013-09-12 21:15:00,66.7,-99.9,-29.53,East,80,0.0,5.5,-999,0.00,,,-99.99,,2013-09-13 04:15:00,
2013-09-12 21:20:00,66.4,-99.9,-29.53,ESE,119,0.0,3.4,-999,0.00,,,-99.99,,2013-09-13 04:20:00,
2013-09-12 21:25:00,66.3,-99.9,-29.53,ESE,119,0.0,0.0,-999,0.00,,,-99.99,,2013-09-13 04:25:00,
2013-09-12 21:30:00,66.3,-99.9,-29.53,ESE,119,0.0,0.0,-999,0.00,,,-99.99,,2013-09-13 04:30:00,
2013-09-12 21:35:00,66.0,-99.9,-29.53,ESE,119,0.0,0.0,-999,0.00,,,-99.99,,2013-09-13 04:35:00,
2013-09-12 21:40:00,65.8,-99.9,-29.53,ENE,74,0.0,4.5,-999,0.00,,,-99.99,,2013-09-13 04:40:00,
2013-09-12 21:46:00,65.9,-99.9,-29.53,ENE,74,0.0,0.0,-999,0.00,,,-99.99,,2013-09-13 04:46:00,
2013-09-12 21:51:00,65.8,-99.9,-29.53,ENE,74,0.0,0.0,-999,0.00,,,-99.99,,2013-09-13 04:51:00,
2013-09-12 21:56:00,65.8,-99.9,-29.53,ENE,74,0.0,0.0,-999,0.00,,,-99.99,,2013-09-13 04:56:00,
2013-09-12 22:11:00,65.6,-99.9,-29.53,SE,129,0.0,5.7,-999,0.00,,,-99.99,,2013-09-13 05:11:00,
2013-09-12 22:16:00,65.6,-99.9,-29.53,SE,129,0.0,0.0,-999,0.00,,,-99.99,,2013-09-13 05:16:00,
2013-09-12 22:22:00,65.4,-99.9,-29.53,SE,129,0.0,0.0,-999,0.00,,,-99.99,,2013-09-13 05:22:00,
2013-09-12 22:27:00,65.4,-99.9,-29.53,SE,129,0.0,0.0,-999,0.00,,,-99.99,,2013-09-13 05:27:00,
2013-09-12 22:32:00,65.4,-99.9,-29.53,SE,129,0.0,0.0,-999,0.00,,,-99.99,,2013-09-13 05:32:00,
2013-09-12 22:37:00,65.3,-99.9,-29.53,East,98,0.0,6.9,-999,0.00,,,-99.99,,2013-09-13 05:37:00,
2013-09-12 22:42:00,65.3,-99.9,-29.53,East,101,0.0,4.7,-999,0.00,,,-99.99,,2013-09-13 05:42:00,
2013-09-12 22:47:00,65.3,-99.9,-29.53,ESE,123,0.0,5.5,-999,0.00,,,-99.99,,2013-09-13 05:47:00,
2013-09-12 22:53:00,65.2,-99.9,-29.53,SE,139,0.0,5.4,-999,0.00,,,-99.99,,2013-09-13 05:53:00,
2013-09-12 22:58:00,65.2,-99.9,-29.53,ESE,112,0.0,5.4,-999,0.00,,,-99.99,,2013-09-13 05:58:00,
2013-09-12 23:13:00,65.1,-99.9,-29.53,SE,125,0.0,5.0,-999,0.00,,,-99.99,,2013-09-13 06:13:00,
2013-09-12 23:18:00,65.0,-99.9,-29.53,SE,125,0.0,0.0,-999,0.00,,,-99.99,,2013-09-13 06:18:00,
2013-09-12 23:23:00,65.0,-99.9,-29.53,SE,125,0.0,0.0,-999,0.00,,,-99.99,,2013-09-13 06:23:00,
2013-09-12 23:29:00,65.0,-99.9,-29.53,SE,125,0.0,0.0,-999,0.00,,,-99.99,,2013-09-13 06:29:00,
2013-09-12 23:34:00,64.8,-99.9,-29.53,SE,125,0.0,0.0,-999,0.00,,,-99.99,,2013-09-13 06:34:00,
2013-09-12 23:39:00,64.9,-99.9,-29.53,SE,125,0.0,0.0,-999,0.00,,,-99.99,,2013-09-13 06:39:00,
2013-09-12 23:44:00,64.8,-99.9,-29.53,SE,125,0.0,0.0,-999,0.00,,,-99.99,,2013-09-13 06:44:00,
2013-09-12 23:49:00,64.8,-99.9,-29.53,SE,125,0.0,0.0,-999,0.00,,,-99.99,,2013-09-13 06:49:00,
2013-09-12 23:54:00,64.8,-99.9,-29.53,SE,125,0.0,0.0,-999,0.00,,,-99.99,,2013-09-13 06:54:00,